TimeCDT,TemperatureF,Dew PointF,Humidity,Sea Level PressureIn,VisibilityMPH,Wind Direction,Wind SpeedMPH,Gust SpeedMPH,PrecipitationIn,Events,Conditions,WindDirDegrees,DateUTC
12:52 AM,54.0,44.1,69,30.19,10.0,Calm,Calm,-,N/A,,Clear,0,2011-10-05 05:52:00
1:52 AM,50.0,44.1,80,30.19,10.0,Calm,Calm,-,N/A,,Clear,0,2011-10-05 06:52:00
2:52 AM,48.9,46.0,90,30.19,10.0,Calm,Calm,-,N/A,,Clear,0,2011-10-05 07:52:00
3:52 AM,48.0,44.1,86,30.19,10.0,Calm,Calm,-,N/A,,Clear,0,2011-10-05 08:52:00
4:52 AM,46.9,43.0,86,30.20,10.0,Calm,Calm,-,N/A,,Clear,0,2011-10-05 09:52:00
5:52 AM,45.0,43.0,93,30.22,10.0,Calm,Calm,-,N/A,,Clear,0,2011-10-05 10:52:00
6:52 AM,45.0,43.0,93,30.23,10.0,East,4.6,-,N/A,,Clear,100,2011-10-05 11:52:00
7:52 AM,46.9,45.0,93,30.24,6.0,East,3.5,-,N/A,,Clear,100,2011-10-05 12:52:00
8:01 AM,48.2,46.4,93,30.23,10.0,East,3.5,-,N/A,,Clear,90,2011-10-05 13:01:00
8:52 AM,57.0,46.9,69,30.24,10.0,Calm,Calm,-,N/A,,Clear,0,2011-10-05 13:52:00
9:52 AM,66.0,50.0,56,30.24,10.0,Calm,Calm,-,N/A,,Clear,0,2011-10-05 14:52:00
10:52 AM,72.0,51.1,48,30.23,10.0,Calm,Calm,-,N/A,,Clear,0,2011-10-05 15:52:00
11:52 AM,75.9,50.0,40,30.21,10.0,SSW,4.6,-,N/A,,Clear,200,2011-10-05 16:52:00
12:52 PM,79.0,48.9,35,30.19,10.0,South,8.1,-,N/A,,Clear,180,2011-10-05 17:52:00
1:52 PM,80.1,48.0,32,30.16,10.0,SW,9.2,-,N/A,,Clear,220,2011-10-05 18:52:00
2:52 PM,80.6,48.2,32,30.15,10.0,South,11.5,-,N/A,,Clear,170,2011-10-05 19:52:00
3:52 PM,80.6,46.4,30,30.14,10.0,SSE,10.4,-,N/A,,Clear,150,2011-10-05 20:52:00
4:52 PM,79.0,46.9,32,30.13,10.0,SSE,8.1,-,N/A,,Clear,160,2011-10-05 21:52:00
5:52 PM,75.2,46.4,36,30.13,10.0,SSE,8.1,-,N/A,,Clear,160,2011-10-05 22:52:00
6:52 PM,66.0,48.9,54,30.14,10.0,SE,6.9,-,N/A,,Clear,130,2011-10-05 23:52:00
7:52 PM,60.8,48.2,63,30.14,10.0,Calm,Calm,-,N/A,,Clear,0,2011-10-06 00:52:00
8:52 PM,59.0,48.9,69,30.15,10.0,East,3.5,-,N/A,,Clear,80,2011-10-06 01:52:00
9:52 PM,57.0,48.9,74,30.15,10.0,Calm,Calm,-,N/A,,Clear,0,2011-10-06 02:52:00
10:52 PM,57.0,48.0,72,30.16,10.0,Calm,Calm,-,N/A,,Clear,0,2011-10-06 03:52:00
11:52 PM,59.0,46.4,63,30.16,10.0,Calm,Calm,-,N/A,,Clear,0,2011-10-06 04:52:00